createdAt,value
2023-04-17T00:00:59.787Z,100449.25
2023-04-17T00:06:01.208Z,100450.53
2023-04-17T00:11:08.039Z,100455.41
2023-04-17T00:16:12.483Z,100445.31
2023-04-17T00:21:13.967Z,100451.75
2023-04-17T00:26:16.245Z,100454.94
2023-04-17T00:31:17.715Z,100449.84
2023-04-17T00:36:19.172Z,100446.53
2023-04-17T00:41:20.749Z,100452.59
2023-04-17T00:46:22.222Z,100457.94
2023-04-17T00:51:23.708Z,100447.97
2023-04-17T00:56:25.267Z,100454.84
2023-04-17T01:01:26.771Z,100449.47
2023-04-17T01:06:28.215Z,100455.31
2023-04-17T01:11:29.679Z,100445.59
2023-04-17T01:16:31.096Z,100453.06
2023-04-17T01:21:32.526Z,100456.84
2023-04-17T01:26:33.907Z,100457.00
2023-04-17T01:31:35.313Z,100455.91
2023-04-17T01:36:36.685Z,100456.38
2023-04-17T01:41:38.062Z,100456.38
2023-04-17T01:46:39.487Z,100454.00
2023-04-17T01:51:41.026Z,100454.13
2023-04-17T01:56:42.475Z,100455.78
2023-04-17T02:01:44.018Z,100456.63
2023-04-17T02:06:45.701Z,100456.38
2023-04-17T02:11:47.084Z,100466.72
2023-04-17T02:16:48.775Z,100467.94
2023-04-17T02:21:50.170Z,100469.59
2023-04-17T02:26:51.541Z,100471.34
2023-04-17T02:31:53.047Z,100464.22
2023-04-17T02:36:54.581Z,100459.47
2023-04-17T02:41:56.453Z,100459.56
2023-04-17T02:46:57.964Z,100463.28
2023-04-17T02:51:59.427Z,100461.00
2023-04-17T02:57:01.664Z,100463.53
2023-04-17T03:02:04.083Z,100450.91
2023-04-17T03:07:06.679Z,100454.25
2023-04-17T03:12:08.087Z,100453.78
2023-04-17T03:17:09.909Z,100461.84
2023-04-17T03:22:13.292Z,100454.72
2023-04-17T03:27:14.820Z,100458.91
2023-04-17T03:32:16.262Z,100462.69
2023-04-17T03:37:17.732Z,100463.53
2023-04-17T03:42:19.111Z,100465.91
2023-04-17T03:47:20.581Z,100474.59
2023-04-17T03:52:21.969Z,100476.13
2023-04-17T03:57:23.354Z,100483.38
2023-04-17T04:02:24.906Z,100474.38
2023-04-17T04:07:26.379Z,100484.94
2023-04-17T04:12:27.774Z,100483.25
2023-04-17T04:17:29.189Z,100488.38
2023-04-17T04:22:30.675Z,100489.81
2023-04-17T04:27:32.736Z,100495.28
2023-04-17T04:32:34.144Z,100486.59
2023-04-17T04:37:35.879Z,100498.13
2023-04-17T04:42:37.924Z,100497.53
2023-04-17T04:47:39.395Z,100497.28
2023-04-17T04:52:40.814Z,100504.31
2023-04-17T04:57:42.198Z,100502.66
2023-04-17T05:02:43.934Z,100509.66
2023-04-17T05:07:45.906Z,100508.66
2023-04-17T05:12:47.319Z,100521.72
2023-04-17T05:17:48.826Z,100521.09
2023-04-17T05:22:50.268Z,100518.19
2023-04-17T05:27:51.650Z,100520.66
2023-04-17T05:32:54.211Z,100524.53
2023-04-17T05:37:55.999Z,100532.03
2023-04-17T05:42:57.359Z,100536.38
2023-04-17T05:47:58.756Z,100538.59
2023-04-17T05:53:00.164Z,100541.53
2023-04-17T05:58:10.543Z,100549.44
2023-04-17T06:03:24.061Z,100548.44
2023-04-17T06:08:26.363Z,100555.00
2023-04-17T06:13:27.762Z,100551.13
2023-04-17T06:18:29.143Z,100552.88
2023-04-17T06:23:30.959Z,100558.38
2023-04-17T06:28:32.347Z,100559.56
2023-04-17T06:33:33.858Z,100570.97
2023-04-17T06:38:35.307Z,100569.81
2023-04-17T06:43:36.739Z,100572.47
2023-04-17T06:48:38.155Z,100581.25
2023-04-17T06:53:39.540Z,100583.16
2023-04-17T06:58:44.047Z,100587.59
2023-04-17T07:03:46.616Z,100591.13
2023-04-17T07:08:48.222Z,100599.47
2023-04-17T07:13:49.607Z,100604.50
2023-04-17T07:18:51.269Z,100607.06
2023-04-17T07:23:52.677Z,100612.31
2023-04-17T07:28:54.079Z,100618.50
2023-04-17T07:33:55.832Z,100623.19
2023-04-17T07:38:57.206Z,100633.66
2023-04-17T07:43:59.143Z,100631.59
2023-04-17T07:49:00.736Z,100642.94
2023-04-17T07:54:03.482Z,100651.84
2023-04-17T07:59:04.864Z,100653.16
2023-04-17T08:04:06.579Z,100654.25
2023-04-17T08:09:08.365Z,100663.63
2023-04-17T08:14:11.484Z,100665.78
2023-04-17T08:19:13.435Z,100668.44
2023-04-17T08:24:16.650Z,100679.50
2023-04-17T08:29:19.346Z,100684.13
2023-04-17T08:34:21.897Z,100690.78
2023-04-17T08:39:23.286Z,100685.22
2023-04-17T08:44:24.750Z,100683.09
2023-04-17T08:49:29.757Z,100698.75
2023-04-17T08:54:33.280Z,100695.19
2023-04-17T08:59:34.710Z,100706.50
2023-04-17T09:04:41.508Z,100705.66
2023-04-17T09:09:46.584Z,100712.94
2023-04-17T09:14:48.010Z,100715.34
2023-04-17T09:20:08.904Z,100717.22
2023-04-17T09:25:17.573Z,100719.84
2023-04-17T09:30:18.982Z,100722.13
2023-04-17T09:35:25.400Z,100721.28
2023-04-17T09:40:28.459Z,100720.94
2023-04-17T09:45:39.920Z,100720.56
2023-04-17T09:50:41.381Z,100719.34
2023-04-17T09:55:43.407Z,100725.50
2023-04-17T10:00:44.895Z,100726.31
2023-04-17T10:05:46.330Z,100733.78
2023-04-17T10:10:50.628Z,100728.81
2023-04-17T10:15:52.135Z,100732.47
2023-04-17T10:20:54.208Z,100733.06
2023-04-17T10:26:27.772Z,100734.38
2023-04-17T10:32:11.202Z,100728.31
2023-04-17T10:37:15.829Z,100730.34
2023-04-17T10:42:18.232Z,100724.81
2023-04-17T10:47:20.521Z,100729.06
2023-04-17T10:52:34.559Z,100720.09
2023-04-17T10:58:15.209Z,100726.47
2023-04-17T11:03:17.184Z,100732.94
2023-04-17T11:08:18.938Z,100733.22
2023-04-17T11:13:20.465Z,100731.81
2023-04-17T11:18:22.202Z,100730.88
2023-04-17T11:23:23.592Z,100735.97
2023-04-17T11:28:25.033Z,100739.84
2023-04-17T11:33:26.520Z,100739.47
2023-04-17T11:38:27.962Z,100742.38
2023-04-17T11:43:30.055Z,100747.38
2023-04-17T11:48:34.282Z,100739.84
2023-04-17T11:53:36.381Z,100737.97
2023-04-17T11:58:48.190Z,100741.41
2023-04-17T12:03:49.815Z,100744.41
2023-04-17T12:08:54.893Z,100748.22
2023-04-17T12:13:56.508Z,100748.69
2023-04-17T12:18:57.942Z,100764.97
2023-04-17T12:23:59.388Z,100753.78
2023-04-17T12:29:00.910Z,100758.81
2023-04-17T12:34:02.283Z,100764.66
2023-04-17T12:39:03.931Z,100762.97
2023-04-17T12:44:05.659Z,100759.34
2023-04-17T12:49:07.047Z,100757.50
2023-04-17T12:54:08.436Z,100756.44
2023-04-17T12:59:10.256Z,100752.34
2023-04-17T13:04:13.214Z,100758.69
2023-04-17T13:09:17.218Z,100752.41
2023-04-17T13:14:18.695Z,100769.13
2023-04-17T13:19:20.271Z,100774.34
2023-04-17T13:24:21.703Z,100776.94
2023-04-17T13:29:23.277Z,100780.28
2023-04-17T13:34:24.682Z,100772.41
2023-04-17T13:39:26.731Z,100775.44
2023-04-17T13:44:28.327Z,100779.63
2023-04-17T13:49:29.852Z,100773.06
2023-04-17T13:54:31.454Z,100768.63
2023-04-17T13:59:32.842Z,100776.88
2023-04-17T14:04:34.318Z,100778.91
2023-04-17T14:09:35.871Z,100772.00
2023-04-17T14:14:37.334Z,100775.34
2023-04-17T14:19:38.799Z,100770.91
2023-04-17T14:24:40.170Z,100771.03
2023-04-17T14:29:41.552Z,100780.28
2023-04-17T14:34:42.938Z,100777.03
2023-04-17T14:39:44.682Z,100779.91
2023-04-17T14:44:46.955Z,100788.81
2023-04-17T14:49:48.369Z,100779.50
2023-04-17T14:54:49.755Z,100782.03
2023-04-17T14:59:51.219Z,100786.53
2023-04-17T15:04:52.718Z,100781.06
2023-04-17T15:09:55.338Z,100782.41
2023-04-17T15:14:57.791Z,100792.19
2023-04-17T15:20:00.573Z,100785.50
2023-04-17T15:25:01.971Z,100795.78
2023-04-17T15:30:06.481Z,100795.06
2023-04-17T15:35:08.019Z,100799.34
2023-04-17T15:40:09.630Z,100799.13
2023-04-17T15:45:11.128Z,100799.50
2023-04-17T15:50:12.656Z,100809.59
2023-04-17T15:55:14.907Z,100806.72
2023-04-17T16:00:16.648Z,100806.28
2023-04-17T16:05:18.136Z,100800.28
2023-04-17T16:10:19.605Z,100802.25
2023-04-17T16:15:21.028Z,100806.06
2023-04-17T16:20:22.496Z,100804.59
2023-04-17T16:25:24.010Z,100804.31
2023-04-17T16:30:25.487Z,100812.75
2023-04-17T16:35:27.710Z,100812.28
2023-04-17T16:40:30.752Z,100813.22
2023-04-17T16:45:32.170Z,100822.50
2023-04-17T16:50:33.592Z,100817.25
2023-04-17T16:55:36.227Z,100818.47
2023-04-17T17:00:37.708Z,100819.63
2023-04-17T17:05:39.285Z,100823.34
2023-04-17T17:10:40.777Z,100827.38
2023-04-17T17:15:42.287Z,100828.28
2023-04-17T17:20:43.674Z,100833.28
2023-04-17T17:25:45.051Z,100834.50
2023-04-17T17:30:47.915Z,100833.13
2023-04-17T17:35:49.338Z,100840.28
2023-04-17T17:40:51.176Z,100846.72
2023-04-17T17:45:52.676Z,100841.13
2023-04-17T17:50:54.583Z,100850.81
2023-04-17T17:55:56.084Z,100846.97
2023-04-17T18:00:57.480Z,100845.53
2023-04-17T18:05:58.860Z,100845.34
2023-04-17T18:11:03.024Z,100841.31
2023-04-17T18:16:04.658Z,100845.75
2023-04-17T18:21:07.004Z,100853.34
2023-04-17T18:26:08.406Z,100854.78
2023-04-17T18:31:09.811Z,100860.47
2023-04-17T18:36:11.255Z,100853.66
2023-04-17T18:41:12.671Z,100860.47
2023-04-17T18:46:14.068Z,100869.06
2023-04-17T18:51:15.665Z,100865.59
2023-04-17T18:56:17.149Z,100869.59
2023-04-17T19:01:18.665Z,100869.31
2023-04-17T19:06:20.100Z,100875.25
2023-04-17T19:11:21.518Z,100875.53
2023-04-17T19:16:22.981Z,100875.38
2023-04-17T19:21:24.388Z,100871.41
2023-04-17T19:26:25.806Z,100880.06
2023-04-17T19:31:27.265Z,100871.22
2023-04-17T19:36:28.746Z,100875.25
2023-04-17T19:41:30.144Z,100881.00
2023-04-17T19:46:31.611Z,100880.91
2023-04-17T19:51:33.026Z,100876.28
2023-04-17T19:56:34.415Z,100878.63
2023-04-17T20:01:36.817Z,100875.44
2023-04-17T20:06:39.467Z,100885.34
2023-04-17T20:11:40.870Z,100886.25
2023-04-17T20:16:44.225Z,100886.00
2023-04-17T20:21:46.774Z,100894.84
2023-04-17T20:26:48.163Z,100893.59
2023-04-17T20:31:49.756Z,100889.56
2023-04-17T20:36:51.157Z,100880.72
2023-04-17T20:41:52.561Z,100881.59
2023-04-17T20:46:53.929Z,100883.25
2023-04-17T20:51:55.448Z,100876.88
2023-04-17T20:56:56.922Z,100882.81
2023-04-17T21:01:58.414Z,100881.00
2023-04-17T21:06:59.889Z,100876.09
2023-04-17T21:12:03.823Z,100874.59
2023-04-17T21:17:05.329Z,100878.63
2023-04-17T21:22:06.708Z,100881.56
2023-04-17T21:27:08.189Z,100876.53
2023-04-17T21:32:09.553Z,100871.72
2023-04-17T21:37:10.942Z,100879.47
2023-04-17T21:42:12.314Z,100867.25
2023-04-17T21:47:16.320Z,100867.34
2023-04-17T21:52:17.716Z,100870.44
2023-04-17T21:57:19.110Z,100875.69
2023-04-17T22:02:20.833Z,100870.88
2023-04-17T22:07:22.519Z,100868.78
2023-04-17T22:12:23.938Z,100864.28
2023-04-17T22:17:25.508Z,100876.97
2023-04-17T22:22:26.912Z,100874.47
2023-04-17T22:27:28.674Z,100882.38
2023-04-17T22:32:30.120Z,100879.94
2023-04-17T22:37:31.580Z,100884.19
2023-04-17T22:42:32.962Z,100872.94
2023-04-17T22:47:34.501Z,100879.94
2023-04-17T22:52:36.228Z,100880.53
2023-04-17T22:57:37.614Z,100880.06
2023-04-17T23:02:39.130Z,100877.97
2023-04-17T23:07:40.656Z,100878.28
2023-04-17T23:12:42.116Z,100875.69
2023-04-17T23:17:43.533Z,100868.38
2023-04-17T23:22:45.039Z,100869.44
2023-04-17T23:27:46.472Z,100871.06
2023-04-17T23:32:48.039Z,100862.63
2023-04-17T23:37:49.833Z,100863.75
2023-04-17T23:42:51.220Z,100857.84
2023-04-17T23:47:53.294Z,100863.66
2023-04-17T23:52:54.881Z,100861.03
2023-04-17T23:57:56.695Z,100856.38
